sensor_id;sensor_type;location;lat;lon;timestamp;P1;durP1;ratioP1;P2;durP2;ratioP2
6013;SDS011;3035;49.928;8.410;2023-02-03T00:01:54;5.70;;;2.20;;
6013;SDS011;3035;49.928;8.410;2023-02-03T00:04:23;7.20;;;2.10;;
6013;SDS011;3035;49.928;8.410;2023-02-03T00:06:51;5.70;;;2.13;;
6013;SDS011;3035;49.928;8.410;2023-02-03T00:09:20;12.87;;;2.70;;
6013;SDS011;3035;49.928;8.410;2023-02-03T00:11:48;7.70;;;2.33;;
6013;SDS011;3035;49.928;8.410;2023-02-03T00:14:16;3.40;;;2.43;;
6013;SDS011;3035;49.928;8.410;2023-02-03T00:16:44;10.23;;;2.57;;
6013;SDS011;3035;49.928;8.410;2023-02-03T00:19:13;8.33;;;2.83;;
6013;SDS011;3035;49.928;8.410;2023-02-03T00:21:41;6.87;;;2.57;;
6013;SDS011;3035;49.928;8.410;2023-02-03T00:24:09;3.87;;;2.20;;
6013;SDS011;3035;49.928;8.410;2023-02-03T00:26:39;3.50;;;1.70;;
6013;SDS011;3035;49.928;8.410;2023-02-03T00:29:08;7.73;;;2.10;;
6013;SDS011;3035;49.928;8.410;2023-02-03T00:31:36;4.47;;;2.20;;
6013;SDS011;3035;49.928;8.410;2023-02-03T00:34:05;8.33;;;2.23;;
6013;SDS011;3035;49.928;8.410;2023-02-03T00:36:34;6.50;;;2.60;;
6013;SDS011;3035;49.928;8.410;2023-02-03T00:39:01;4.77;;;2.10;;
6013;SDS011;3035;49.928;8.410;2023-02-03T00:41:30;3.67;;;1.83;;
6013;SDS011;3035;49.928;8.410;2023-02-03T00:43:58;1.70;;;1.60;;
6013;SDS011;3035;49.928;8.410;2023-02-03T00:46:26;7.47;;;2.20;;
6013;SDS011;3035;49.928;8.410;2023-02-03T00:48:56;8.57;;;2.60;;
6013;SDS011;3035;49.928;8.410;2023-02-03T00:51:24;3.00;;;1.80;;
6013;SDS011;3035;49.928;8.410;2023-02-03T00:53:52;3.43;;;2.20;;
6013;SDS011;3035;49.928;8.410;2023-02-03T00:56:20;3.83;;;1.87;;
6013;SDS011;3035;49.928;8.410;2023-02-03T00:58:49;5.23;;;2.50;;
6013;SDS011;3035;49.928;8.410;2023-02-03T01:01:17;6.40;;;1.93;;
6013;SDS011;3035;49.928;8.410;2023-02-03T01:03:46;5.33;;;1.70;;
6013;SDS011;3035;49.928;8.410;2023-02-03T01:06:15;4.13;;;2.10;;
6013;SDS011;3035;49.928;8.410;2023-02-03T01:08:42;3.30;;;1.80;;
6013;SDS011;3035;49.928;8.410;2023-02-03T01:11:13;3.90;;;1.97;;
6013;SDS011;3035;49.928;8.410;2023-02-03T01:13:40;2.90;;;2.10;;
6013;SDS011;3035;49.928;8.410;2023-02-03T01:16:09;7.30;;;1.90;;
6013;SDS011;3035;49.928;8.410;2023-02-03T01:18:37;2.00;;;1.80;;
6013;SDS011;3035;49.928;8.410;2023-02-03T01:21:06;4.30;;;2.00;;
6013;SDS011;3035;49.928;8.410;2023-02-03T01:23:35;2.77;;;2.13;;
6013;SDS011;3035;49.928;8.410;2023-02-03T01:26:05;2.63;;;1.40;;
6013;SDS011;3035;49.928;8.410;2023-02-03T01:28:33;2.47;;;1.60;;
6013;SDS011;3035;49.928;8.410;2023-02-03T01:31:08;2.07;;;1.60;;
6013;SDS011;3035;49.928;8.410;2023-02-03T01:33:39;1.73;;;1.63;;
6013;SDS011;3035;49.928;8.410;2023-02-03T01:36:08;5.03;;;1.57;;
6013;SDS011;3035;49.928;8.410;2023-02-03T01:38:36;5.47;;;1.97;;
6013;SDS011;3035;49.928;8.410;2023-02-03T01:41:06;2.77;;;1.63;;
6013;SDS011;3035;49.928;8.410;2023-02-03T01:43:37;3.60;;;1.90;;
6013;SDS011;3035;49.928;8.410;2023-02-03T01:46:13;3.63;;;1.90;;
6013;SDS011;3035;49.928;8.410;2023-02-03T01:49:06;2.73;;;2.20;;
6013;SDS011;3035;49.928;8.410;2023-02-03T01:51:34;3.80;;;1.70;;
6013;SDS011;3035;49.928;8.410;2023-02-03T01:54:02;5.53;;;1.97;;
6013;SDS011;3035;49.928;8.410;2023-02-03T01:56:31;3.10;;;1.77;;
6013;SDS011;3035;49.928;8.410;2023-02-03T01:58:58;6.93;;;1.93;;
6013;SDS011;3035;49.928;8.410;2023-02-03T02:01:27;4.73;;;1.73;;
6013;SDS011;3035;49.928;8.410;2023-02-03T02:03:56;5.80;;;2.00;;
6013;SDS011;3035;49.928;8.410;2023-02-03T02:06:25;1.97;;;1.57;;
6013;SDS011;3035;49.928;8.410;2023-02-03T02:08:54;6.43;;;2.37;;
6013;SDS011;3035;49.928;8.410;2023-02-03T02:11:22;2.20;;;1.30;;
6013;SDS011;3035;49.928;8.410;2023-02-03T02:13:50;4.70;;;2.20;;
6013;SDS011;3035;49.928;8.410;2023-02-03T02:16:28;3.23;;;1.27;;
6013;SDS011;3035;49.928;8.410;2023-02-03T02:18:59;2.93;;;1.50;;
6013;SDS011;3035;49.928;8.410;2023-02-03T02:21:51;3.03;;;1.50;;
6013;SDS011;3035;49.928;8.410;2023-02-03T02:27:30;1.73;;;1.60;;
6013;SDS011;3035;49.928;8.410;2023-02-03T02:30:24;2.30;;;1.57;;
6013;SDS011;3035;49.928;8.410;2023-02-03T02:33:12;3.20;;;1.90;;
6013;SDS011;3035;49.928;8.410;2023-02-03T02:35:42;3.53;;;1.60;;
6013;SDS011;3035;49.928;8.410;2023-02-03T02:41:01;7.70;;;1.23;;
6013;SDS011;3035;49.928;8.410;2023-02-03T02:43:36;5.20;;;1.20;;
6013;SDS011;3035;49.928;8.410;2023-02-03T02:46:05;3.90;;;1.50;;
6013;SDS011;3035;49.928;8.410;2023-02-03T02:48:35;1.40;;;1.20;;
6013;SDS011;3035;49.928;8.410;2023-02-03T02:51:02;1.50;;;1.40;;
6013;SDS011;3035;49.928;8.410;2023-02-03T02:53:33;1.27;;;1.17;;
6013;SDS011;3035;49.928;8.410;2023-02-03T02:56:02;1.50;;;1.40;;
6013;SDS011;3035;49.928;8.410;2023-02-03T02:58:29;1.43;;;1.33;;
6013;SDS011;3035;49.928;8.410;2023-02-03T03:00:57;3.33;;;1.40;;
6013;SDS011;3035;49.928;8.410;2023-02-03T03:03:25;1.70;;;1.60;;
6013;SDS011;3035;49.928;8.410;2023-02-03T03:05:54;6.60;;;1.40;;
6013;SDS011;3035;49.928;8.410;2023-02-03T03:08:23;1.30;;;1.20;;
6013;SDS011;3035;49.928;8.410;2023-02-03T03:10:50;1.73;;;1.57;;
6013;SDS011;3035;49.928;8.410;2023-02-03T03:13:21;2.80;;;1.20;;
6013;SDS011;3035;49.928;8.410;2023-02-03T03:15:49;3.47;;;1.70;;
6013;SDS011;3035;49.928;8.410;2023-02-03T03:18:21;1.47;;;1.37;;
6013;SDS011;3035;49.928;8.410;2023-02-03T03:20:48;3.60;;;1.57;;
6013;SDS011;3035;49.928;8.410;2023-02-03T03:23:19;3.80;;;1.33;;
6013;SDS011;3035;49.928;8.410;2023-02-03T03:25:48;2.80;;;1.30;;
6013;SDS011;3035;49.928;8.410;2023-02-03T03:28:19;2.00;;;1.03;;
6013;SDS011;3035;49.928;8.410;2023-02-03T03:30:45;2.10;;;1.30;;
6013;SDS011;3035;49.928;8.410;2023-02-03T03:33:13;2.10;;;1.40;;
6013;SDS011;3035;49.928;8.410;2023-02-03T03:38:38;4.63;;;1.10;;
6013;SDS011;3035;49.928;8.410;2023-02-03T03:41:07;1.83;;;1.17;;
6013;SDS011;3035;49.928;8.410;2023-02-03T03:43:36;0.90;;;0.90;;
6013;SDS011;3035;49.928;8.410;2023-02-03T03:46:06;1.77;;;1.67;;
6013;SDS011;3035;49.928;8.410;2023-02-03T03:48:33;4.80;;;1.07;;
6013;SDS011;3035;49.928;8.410;2023-02-03T03:51:02;1.30;;;1.10;;
6013;SDS011;3035;49.928;8.410;2023-02-03T03:53:30;2.40;;;1.20;;
6013;SDS011;3035;49.928;8.410;2023-02-03T03:55:58;1.30;;;1.20;;
6013;SDS011;3035;49.928;8.410;2023-02-03T03:58:28;1.23;;;1.13;;
6013;SDS011;3035;49.928;8.410;2023-02-03T04:00:58;1.57;;;1.17;;
6013;SDS011;3035;49.928;8.410;2023-02-03T04:03:28;1.10;;;1.00;;
6013;SDS011;3035;49.928;8.410;2023-02-03T04:05:58;1.50;;;0.97;;
6013;SDS011;3035;49.928;8.410;2023-02-03T04:08:27;3.10;;;1.30;;
6013;SDS011;3035;49.928;8.410;2023-02-03T04:10:55;1.07;;;0.97;;
6013;SDS011;3035;49.928;8.410;2023-02-03T04:13:23;0.80;;;0.80;;
6013;SDS011;3035;49.928;8.410;2023-02-03T04:15:52;1.20;;;1.10;;
6013;SDS011;3035;49.928;8.410;2023-02-03T04:18:20;1.40;;;0.80;;
6013;SDS011;3035;49.928;8.410;2023-02-03T04:20:48;4.40;;;1.10;;
6013;SDS011;3035;49.928;8.410;2023-02-03T04:23:17;1.23;;;0.97;;
6013;SDS011;3035;49.928;8.410;2023-02-03T04:25:45;2.13;;;1.03;;
6013;SDS011;3035;49.928;8.410;2023-02-03T04:28:14;1.03;;;0.80;;
6013;SDS011;3035;49.928;8.410;2023-02-03T04:30:43;1.10;;;0.93;;
6013;SDS011;3035;49.928;8.410;2023-02-03T04:33:11;1.73;;;1.00;;
6013;SDS011;3035;49.928;8.410;2023-02-03T04:35:39;0.90;;;0.90;;
6013;SDS011;3035;49.928;8.410;2023-02-03T04:38:07;2.10;;;0.90;;
6013;SDS011;3035;49.928;8.410;2023-02-03T04:40:36;1.10;;;1.00;;
6013;SDS011;3035;49.928;8.410;2023-02-03T04:43:06;0.90;;;0.90;;
6013;SDS011;3035;49.928;8.410;2023-02-03T04:45:34;5.50;;;1.07;;
6013;SDS011;3035;49.928;8.410;2023-02-03T04:48:03;1.30;;;1.20;;
6013;SDS011;3035;49.928;8.410;2023-02-03T04:50:32;1.40;;;1.10;;
6013;SDS011;3035;49.928;8.410;2023-02-03T04:53:00;1.27;;;1.17;;
6013;SDS011;3035;49.928;8.410;2023-02-03T04:55:28;4.50;;;1.30;;
6013;SDS011;3035;49.928;8.410;2023-02-03T04:57:57;1.33;;;1.23;;
6013;SDS011;3035;49.928;8.410;2023-02-03T05:00:26;5.37;;;1.37;;
6013;SDS011;3035;49.928;8.410;2023-02-03T05:02:55;1.33;;;1.23;;
6013;SDS011;3035;49.928;8.410;2023-02-03T05:05:23;3.23;;;1.50;;
6013;SDS011;3035;49.928;8.410;2023-02-03T05:07:52;2.50;;;1.10;;
6013;SDS011;3035;49.928;8.410;2023-02-03T05:10:21;1.50;;;1.37;;
6013;SDS011;3035;49.928;8.410;2023-02-03T05:12:49;1.57;;;1.47;;
6013;SDS011;3035;49.928;8.410;2023-02-03T05:15:17;2.53;;;1.47;;
6013;SDS011;3035;49.928;8.410;2023-02-03T05:17:46;1.70;;;1.60;;
6013;SDS011;3035;49.928;8.410;2023-02-03T05:20:14;2.00;;;1.30;;
6013;SDS011;3035;49.928;8.410;2023-02-03T05:22:43;1.27;;;1.13;;
6013;SDS011;3035;49.928;8.410;2023-02-03T05:25:11;2.00;;;1.80;;
6013;SDS011;3035;49.928;8.410;2023-02-03T05:27:39;1.50;;;1.40;;
6013;SDS011;3035;49.928;8.410;2023-02-03T05:30:08;2.03;;;1.30;;
6013;SDS011;3035;49.928;8.410;2023-02-03T05:32:37;1.27;;;1.17;;
6013;SDS011;3035;49.928;8.410;2023-02-03T05:35:05;2.17;;;1.73;;
6013;SDS011;3035;49.928;8.410;2023-02-03T05:37:35;1.90;;;1.40;;
6013;SDS011;3035;49.928;8.410;2023-02-03T05:40:03;3.07;;;1.73;;
6013;SDS011;3035;49.928;8.410;2023-02-03T05:42:38;1.50;;;1.40;;
6013;SDS011;3035;49.928;8.410;2023-02-03T05:45:07;2.73;;;1.90;;
6013;SDS011;3035;49.928;8.410;2023-02-03T05:47:37;1.87;;;1.50;;
6013;SDS011;3035;49.928;8.410;2023-02-03T05:50:05;1.37;;;1.27;;
6013;SDS011;3035;49.928;8.410;2023-02-03T05:52:34;2.50;;;1.60;;
6013;SDS011;3035;49.928;8.410;2023-02-03T05:55:02;7.27;;;1.50;;
6013;SDS011;3035;49.928;8.410;2023-02-03T05:57:30;4.13;;;1.37;;
6013;SDS011;3035;49.928;8.410;2023-02-03T05:59:59;5.00;;;1.40;;
6013;SDS011;3035;49.928;8.410;2023-02-03T06:02:28;4.60;;;1.60;;
6013;SDS011;3035;49.928;8.410;2023-02-03T06:04:56;1.50;;;1.40;;
6013;SDS011;3035;49.928;8.410;2023-02-03T06:07:25;2.57;;;2.00;;
6013;SDS011;3035;49.928;8.410;2023-02-03T06:09:54;3.90;;;1.70;;
6013;SDS011;3035;49.928;8.410;2023-02-03T06:12:23;3.50;;;1.70;;
6013;SDS011;3035;49.928;8.410;2023-02-03T06:14:51;1.47;;;1.37;;
6013;SDS011;3035;49.928;8.410;2023-02-03T06:17:19;6.23;;;1.43;;
6013;SDS011;3035;49.928;8.410;2023-02-03T06:19:48;3.00;;;1.93;;
6013;SDS011;3035;49.928;8.410;2023-02-03T06:22:16;2.47;;;1.70;;
6013;SDS011;3035;49.928;8.410;2023-02-03T06:24:45;1.50;;;1.40;;
6013;SDS011;3035;49.928;8.410;2023-02-03T06:27:14;3.57;;;1.30;;
6013;SDS011;3035;49.928;8.410;2023-02-03T06:29:42;1.87;;;1.77;;
6013;SDS011;3035;49.928;8.410;2023-02-03T06:32:10;4.13;;;1.60;;
6013;SDS011;3035;49.928;8.410;2023-02-03T06:34:38;4.33;;;1.53;;
6013;SDS011;3035;49.928;8.410;2023-02-03T06:37:07;3.63;;;2.10;;
6013;SDS011;3035;49.928;8.410;2023-02-03T06:39:35;1.90;;;1.50;;
6013;SDS011;3035;49.928;8.410;2023-02-03T06:42:04;2.57;;;1.60;;
6013;SDS011;3035;49.928;8.410;2023-02-03T06:44:33;1.67;;;1.30;;
6013;SDS011;3035;49.928;8.410;2023-02-03T06:47:02;1.40;;;1.30;;
6013;SDS011;3035;49.928;8.410;2023-02-03T06:49:30;1.90;;;1.70;;
6013;SDS011;3035;49.928;8.410;2023-02-03T06:51:59;2.73;;;1.90;;
6013;SDS011;3035;49.928;8.410;2023-02-03T06:54:27;1.90;;;1.40;;
6013;SDS011;3035;49.928;8.410;2023-02-03T06:56:56;3.10;;;1.60;;
6013;SDS011;3035;49.928;8.410;2023-02-03T06:59:24;1.33;;;1.03;;
6013;SDS011;3035;49.928;8.410;2023-02-03T07:01:53;1.87;;;1.30;;
6013;SDS011;3035;49.928;8.410;2023-02-03T07:04:21;2.93;;;1.30;;
6013;SDS011;3035;49.928;8.410;2023-02-03T07:06:50;2.10;;;1.20;;
6013;SDS011;3035;49.928;8.410;2023-02-03T07:09:18;3.57;;;1.20;;
6013;SDS011;3035;49.928;8.410;2023-02-03T07:11:47;3.47;;;1.40;;
6013;SDS011;3035;49.928;8.410;2023-02-03T07:14:15;2.60;;;1.33;;
6013;SDS011;3035;49.928;8.410;2023-02-03T07:16:43;2.63;;;1.40;;
6013;SDS011;3035;49.928;8.410;2023-02-03T07:19:11;5.77;;;1.40;;
6013;SDS011;3035;49.928;8.410;2023-02-03T07:21:41;1.50;;;1.23;;
6013;SDS011;3035;49.928;8.410;2023-02-03T07:24:09;2.70;;;1.63;;
6013;SDS011;3035;49.928;8.410;2023-02-03T07:26:37;1.50;;;1.13;;
6013;SDS011;3035;49.928;8.410;2023-02-03T07:29:05;1.03;;;1.00;;
6013;SDS011;3035;49.928;8.410;2023-02-03T07:31:34;1.30;;;1.20;;
6013;SDS011;3035;49.928;8.410;2023-02-03T07:34:02;1.93;;;1.33;;
6013;SDS011;3035;49.928;8.410;2023-02-03T07:36:31;1.77;;;1.20;;
6013;SDS011;3035;49.928;8.410;2023-02-03T07:38:59;1.33;;;1.23;;
6013;SDS011;3035;49.928;8.410;2023-02-03T07:41:28;2.97;;;1.60;;
6013;SDS011;3035;49.928;8.410;2023-02-03T07:43:56;1.37;;;1.27;;
6013;SDS011;3035;49.928;8.410;2023-02-03T07:46:24;2.97;;;1.33;;
6013;SDS011;3035;49.928;8.410;2023-02-03T07:48:52;1.63;;;1.53;;
6013;SDS011;3035;49.928;8.410;2023-02-03T07:51:20;3.07;;;1.20;;
6013;SDS011;3035;49.928;8.410;2023-02-03T07:53:49;1.63;;;1.47;;
6013;SDS011;3035;49.928;8.410;2023-02-03T07:56:17;2.60;;;1.30;;
6013;SDS011;3035;49.928;8.410;2023-02-03T07:58:45;1.47;;;1.20;;
6013;SDS011;3035;49.928;8.410;2023-02-03T08:01:14;1.20;;;1.10;;
6013;SDS011;3035;49.928;8.410;2023-02-03T08:03:42;1.43;;;1.00;;
6013;SDS011;3035;49.928;8.410;2023-02-03T08:06:11;5.77;;;1.33;;
6013;SDS011;3035;49.928;8.410;2023-02-03T08:08:39;3.80;;;1.30;;
6013;SDS011;3035;49.928;8.410;2023-02-03T08:11:08;2.83;;;1.60;;
6013;SDS011;3035;49.928;8.410;2023-02-03T08:13:37;2.83;;;1.30;;
6013;SDS011;3035;49.928;8.410;2023-02-03T08:16:06;1.30;;;1.20;;
6013;SDS011;3035;49.928;8.410;2023-02-03T08:18:34;3.00;;;1.40;;
6013;SDS011;3035;49.928;8.410;2023-02-03T08:21:02;3.97;;;1.17;;
6013;SDS011;3035;49.928;8.410;2023-02-03T08:23:30;3.73;;;1.43;;
6013;SDS011;3035;49.928;8.410;2023-02-03T08:25:59;1.10;;;1.00;;
6013;SDS011;3035;49.928;8.410;2023-02-03T08:28:27;1.20;;;1.10;;
6013;SDS011;3035;49.928;8.410;2023-02-03T08:30:56;3.93;;;1.20;;
6013;SDS011;3035;49.928;8.410;2023-02-03T08:33:25;2.40;;;1.30;;
6013;SDS011;3035;49.928;8.410;2023-02-03T08:35:54;3.63;;;1.40;;
6013;SDS011;3035;49.928;8.410;2023-02-03T08:38:23;5.63;;;2.80;;
6013;SDS011;3035;49.928;8.410;2023-02-03T08:40:51;4.37;;;1.27;;
6013;SDS011;3035;49.928;8.410;2023-02-03T08:43:19;1.10;;;1.00;;
6013;SDS011;3035;49.928;8.410;2023-02-03T08:45:47;3.07;;;1.40;;
6013;SDS011;3035;49.928;8.410;2023-02-03T08:48:15;5.60;;;1.70;;
6013;SDS011;3035;49.928;8.410;2023-02-03T08:50:44;2.13;;;1.30;;
6013;SDS011;3035;49.928;8.410;2023-02-03T08:53:12;2.93;;;1.33;;
6013;SDS011;3035;49.928;8.410;2023-02-03T08:55:41;2.30;;;1.60;;
6013;SDS011;3035;49.928;8.410;2023-02-03T08:58:10;8.40;;;2.23;;
6013;SDS011;3035;49.928;8.410;2023-02-03T09:00:38;1.30;;;1.20;;
6013;SDS011;3035;49.928;8.410;2023-02-03T09:03:07;1.30;;;1.20;;
6013;SDS011;3035;49.928;8.410;2023-02-03T09:05:36;3.17;;;1.30;;
6013;SDS011;3035;49.928;8.410;2023-02-03T09:08:05;4.60;;;1.73;;
6013;SDS011;3035;49.928;8.410;2023-02-03T09:10:33;3.30;;;3.00;;
6013;SDS011;3035;49.928;8.410;2023-02-03T09:13:01;1.17;;;1.07;;
6013;SDS011;3035;49.928;8.410;2023-02-03T09:15:30;1.30;;;1.20;;
6013;SDS011;3035;49.928;8.410;2023-02-03T09:17:58;2.20;;;1.07;;
6013;SDS011;3035;49.928;8.410;2023-02-03T09:20:27;5.30;;;1.10;;
6013;SDS011;3035;49.928;8.410;2023-02-03T09:22:57;3.73;;;1.53;;
6013;SDS011;3035;49.928;8.410;2023-02-03T09:25:24;1.83;;;1.10;;
6013;SDS011;3035;49.928;8.410;2023-02-03T09:27:52;2.47;;;1.27;;
6013;SDS011;3035;49.928;8.410;2023-02-03T09:30:21;2.60;;;1.00;;
6013;SDS011;3035;49.928;8.410;2023-02-03T09:32:51;1.80;;;1.40;;
6013;SDS011;3035;49.928;8.410;2023-02-03T09:35:19;0.77;;;0.70;;
6013;SDS011;3035;49.928;8.410;2023-02-03T09:37:47;1.03;;;0.90;;
6013;SDS011;3035;49.928;8.410;2023-02-03T09:40:21;2.70;;;1.77;;
6013;SDS011;3035;49.928;8.410;2023-02-03T09:42:58;2.23;;;1.03;;
6013;SDS011;3035;49.928;8.410;2023-02-03T09:45:28;1.00;;;0.90;;
6013;SDS011;3035;49.928;8.410;2023-02-03T09:47:57;5.97;;;1.60;;
6013;SDS011;3035;49.928;8.410;2023-02-03T09:50:25;2.87;;;1.53;;
6013;SDS011;3035;49.928;8.410;2023-02-03T09:52:53;4.13;;;1.40;;
6013;SDS011;3035;49.928;8.410;2023-02-03T09:55:26;2.87;;;1.50;;
6013;SDS011;3035;49.928;8.410;2023-02-03T09:58:04;2.80;;;1.10;;
6013;SDS011;3035;49.928;8.410;2023-02-03T10:00:36;4.30;;;1.43;;
6013;SDS011;3035;49.928;8.410;2023-02-03T10:03:18;0.90;;;0.80;;
6013;SDS011;3035;49.928;8.410;2023-02-03T10:06:05;6.30;;;1.33;;
6013;SDS011;3035;49.928;8.410;2023-02-03T10:11:37;1.30;;;1.20;;
6013;SDS011;3035;49.928;8.410;2023-02-03T10:17:14;2.83;;;1.30;;
6013;SDS011;3035;49.928;8.410;2023-02-03T10:22:33;1.63;;;0.83;;
6013;SDS011;3035;49.928;8.410;2023-02-03T10:27:47;3.83;;;1.47;;
6013;SDS011;3035;49.928;8.410;2023-02-03T10:30:20;7.27;;;1.50;;
6013;SDS011;3035;49.928;8.410;2023-02-03T10:32:51;4.63;;;1.37;;
6013;SDS011;3035;49.928;8.410;2023-02-03T10:35:20;1.70;;;0.93;;
6013;SDS011;3035;49.928;8.410;2023-02-03T10:37:49;3.83;;;1.00;;
6013;SDS011;3035;49.928;8.410;2023-02-03T10:40:16;3.43;;;1.10;;
6013;SDS011;3035;49.928;8.410;2023-02-03T10:42:46;5.70;;;1.53;;
6013;SDS011;3035;49.928;8.410;2023-02-03T10:45:19;1.67;;;0.87;;
6013;SDS011;3035;49.928;8.410;2023-02-03T10:47:51;2.50;;;0.80;;
6013;SDS011;3035;49.928;8.410;2023-02-03T10:50:20;4.33;;;1.37;;
6013;SDS011;3035;49.928;8.410;2023-02-03T10:52:49;1.57;;;1.03;;
6013;SDS011;3035;49.928;8.410;2023-02-03T10:58:05;3.63;;;1.10;;
6013;SDS011;3035;49.928;8.410;2023-02-03T11:00:30;5.37;;;1.30;;
6013;SDS011;3035;49.928;8.410;2023-02-03T11:03:03;4.40;;;1.40;;
6013;SDS011;3035;49.928;8.410;2023-02-03T11:05:30;6.33;;;1.03;;
6013;SDS011;3035;49.928;8.410;2023-02-03T11:07:59;6.60;;;1.03;;
6013;SDS011;3035;49.928;8.410;2023-02-03T11:10:32;2.83;;;0.93;;
6013;SDS011;3035;49.928;8.410;2023-02-03T11:15:54;0.90;;;0.73;;
6013;SDS011;3035;49.928;8.410;2023-02-03T11:21:21;1.30;;;1.00;;
6013;SDS011;3035;49.928;8.410;2023-02-03T11:23:56;3.77;;;1.00;;
6013;SDS011;3035;49.928;8.410;2023-02-03T11:26:34;2.70;;;1.10;;
6013;SDS011;3035;49.928;8.410;2023-02-03T11:29:04;2.30;;;1.13;;
6013;SDS011;3035;49.928;8.410;2023-02-03T11:31:32;2.93;;;0.90;;
6013;SDS011;3035;49.928;8.410;2023-02-03T11:34:03;2.87;;;1.13;;
6013;SDS011;3035;49.928;8.410;2023-02-03T11:36:31;0.60;;;0.60;;
6013;SDS011;3035;49.928;8.410;2023-02-03T11:41:37;4.40;;;1.23;;
6013;SDS011;3035;49.928;8.410;2023-02-03T11:44:10;4.27;;;1.20;;
6013;SDS011;3035;49.928;8.410;2023-02-03T11:46:38;1.97;;;1.00;;
6013;SDS011;3035;49.928;8.410;2023-02-03T11:51:47;3.83;;;1.00;;
6013;SDS011;3035;49.928;8.410;2023-02-03T11:54:25;3.83;;;1.10;;
6013;SDS011;3035;49.928;8.410;2023-02-03T12:00:13;3.87;;;1.13;;
6013;SDS011;3035;49.928;8.410;2023-02-03T12:05:40;3.90;;;1.20;;
6013;SDS011;3035;49.928;8.410;2023-02-03T12:08:12;4.73;;;1.70;;
6013;SDS011;3035;49.928;8.410;2023-02-03T12:10:49;6.10;;;1.40;;
6013;SDS011;3035;49.928;8.410;2023-02-03T12:13:39;5.57;;;2.17;;
6013;SDS011;3035;49.928;8.410;2023-02-03T12:19:20;1.47;;;0.90;;
6013;SDS011;3035;49.928;8.410;2023-02-03T12:22:03;5.90;;;1.63;;
6013;SDS011;3035;49.928;8.410;2023-02-03T12:24:47;1.20;;;1.07;;
6013;SDS011;3035;49.928;8.410;2023-02-03T12:27:21;1.83;;;1.03;;
6013;SDS011;3035;49.928;8.410;2023-02-03T12:32:54;2.70;;;1.20;;
6013;SDS011;3035;49.928;8.410;2023-02-03T12:35:24;1.20;;;0.90;;
6013;SDS011;3035;49.928;8.410;2023-02-03T12:37:57;1.67;;;0.93;;
6013;SDS011;3035;49.928;8.410;2023-02-03T12:40:34;1.07;;;1.00;;
6013;SDS011;3035;49.928;8.410;2023-02-03T12:43:16;3.03;;;0.90;;
6013;SDS011;3035;49.928;8.410;2023-02-03T12:45:52;2.33;;;0.97;;
6013;SDS011;3035;49.928;8.410;2023-02-03T12:48:21;2.80;;;0.90;;
6013;SDS011;3035;49.928;8.410;2023-02-03T12:50:50;0.90;;;0.80;;
6013;SDS011;3035;49.928;8.410;2023-02-03T12:53:20;0.80;;;0.80;;
6013;SDS011;3035;49.928;8.410;2023-02-03T12:55:57;2.13;;;1.10;;
6013;SDS011;3035;49.928;8.410;2023-02-03T12:58:27;1.20;;;0.93;;
6013;SDS011;3035;49.928;8.410;2023-02-03T13:00:58;2.03;;;0.80;;
6013;SDS011;3035;49.928;8.410;2023-02-03T13:03:42;0.83;;;0.80;;
6013;SDS011;3035;49.928;8.410;2023-02-03T13:06:30;5.53;;;1.20;;
6013;SDS011;3035;49.928;8.410;2023-02-03T13:11:58;2.97;;;1.70;;
6013;SDS011;3035;49.928;8.410;2023-02-03T13:14:32;1.67;;;1.10;;
6013;SDS011;3035;49.928;8.410;2023-02-03T13:19:47;1.70;;;1.00;;
6013;SDS011;3035;49.928;8.410;2023-02-03T13:22:17;2.63;;;1.57;;
6013;SDS011;3035;49.928;8.410;2023-02-03T13:24:47;4.67;;;1.33;;
6013;SDS011;3035;49.928;8.410;2023-02-03T13:27:27;2.10;;;1.17;;
6013;SDS011;3035;49.928;8.410;2023-02-03T13:29:59;1.07;;;0.80;;
6013;SDS011;3035;49.928;8.410;2023-02-03T13:32:48;3.30;;;1.10;;
6013;SDS011;3035;49.928;8.410;2023-02-03T13:35:34;1.57;;;1.07;;
6013;SDS011;3035;49.928;8.410;2023-02-03T13:38:12;2.83;;;1.60;;
6013;SDS011;3035;49.928;8.410;2023-02-03T13:40:43;1.30;;;1.20;;
6013;SDS011;3035;49.928;8.410;2023-02-03T13:43:31;1.70;;;1.00;;
6013;SDS011;3035;49.928;8.410;2023-02-03T13:45:58;2.03;;;1.20;;
6013;SDS011;3035;49.928;8.410;2023-02-03T13:48:27;1.10;;;0.90;;
6013;SDS011;3035;49.928;8.410;2023-02-03T13:51:01;1.10;;;1.00;;
6013;SDS011;3035;49.928;8.410;2023-02-03T13:53:32;1.00;;;0.90;;
6013;SDS011;3035;49.928;8.410;2023-02-03T13:56:03;0.93;;;0.90;;
6013;SDS011;3035;49.928;8.410;2023-02-03T13:58:33;3.07;;;0.90;;
6013;SDS011;3035;49.928;8.410;2023-02-03T14:01:03;0.90;;;0.70;;
6013;SDS011;3035;49.928;8.410;2023-02-03T14:09:00;1.00;;;0.77;;
6013;SDS011;3035;49.928;8.410;2023-02-03T14:11:37;2.37;;;0.90;;
6013;SDS011;3035;49.928;8.410;2023-02-03T14:20:35;1.40;;;1.23;;
6013;SDS011;3035;49.928;8.410;2023-02-03T14:23:08;1.00;;;0.90;;
6013;SDS011;3035;49.928;8.410;2023-02-03T14:25:37;0.70;;;0.70;;
6013;SDS011;3035;49.928;8.410;2023-02-03T14:28:10;0.80;;;0.80;;
6013;SDS011;3035;49.928;8.410;2023-02-03T14:36:26;0.70;;;0.70;;
6013;SDS011;3035;49.928;8.410;2023-02-03T14:38:59;0.97;;;0.90;;
6013;SDS011;3035;49.928;8.410;2023-02-03T14:41:29;3.80;;;0.80;;
6013;SDS011;3035;49.928;8.410;2023-02-03T14:44:04;0.80;;;0.80;;
6013;SDS011;3035;49.928;8.410;2023-02-03T14:49:16;0.70;;;0.70;;
6013;SDS011;3035;49.928;8.410;2023-02-03T14:51:50;0.70;;;0.67;;
6013;SDS011;3035;49.928;8.410;2023-02-03T14:54:41;1.13;;;0.80;;
6013;SDS011;3035;49.928;8.410;2023-02-03T14:57:26;0.70;;;0.70;;
6013;SDS011;3035;49.928;8.410;2023-02-03T15:03:13;1.57;;;0.90;;
6013;SDS011;3035;49.928;8.410;2023-02-03T15:05:43;1.50;;;0.70;;
6013;SDS011;3035;49.928;8.410;2023-02-03T15:10:57;3.27;;;1.63;;
6013;SDS011;3035;49.928;8.410;2023-02-03T15:13:26;1.60;;;1.10;;
6013;SDS011;3035;49.928;8.410;2023-02-03T15:15:56;1.23;;;0.97;;
6013;SDS011;3035;49.928;8.410;2023-02-03T15:18:27;3.33;;;1.00;;
6013;SDS011;3035;49.928;8.410;2023-02-03T15:20:55;1.17;;;0.80;;
6013;SDS011;3035;49.928;8.410;2023-02-03T15:23:24;0.70;;;0.70;;
6013;SDS011;3035;49.928;8.410;2023-02-03T15:25:55;1.27;;;0.90;;
6013;SDS011;3035;49.928;8.410;2023-02-03T15:28:24;0.73;;;0.70;;
6013;SDS011;3035;49.928;8.410;2023-02-03T15:30:54;1.10;;;0.73;;
6013;SDS011;3035;49.928;8.410;2023-02-03T15:33:28;0.90;;;0.80;;
6013;SDS011;3035;49.928;8.410;2023-02-03T15:35:58;1.17;;;0.63;;
6013;SDS011;3035;49.928;8.410;2023-02-03T15:38:26;0.93;;;0.90;;
6013;SDS011;3035;49.928;8.410;2023-02-03T15:40:55;0.80;;;0.80;;
6013;SDS011;3035;49.928;8.410;2023-02-03T15:43:29;1.73;;;0.80;;
6013;SDS011;3035;49.928;8.410;2023-02-03T15:46:00;0.60;;;0.60;;
6013;SDS011;3035;49.928;8.410;2023-02-03T15:48:44;0.90;;;0.90;;
6013;SDS011;3035;49.928;8.410;2023-02-03T15:51:19;0.80;;;0.80;;
6013;SDS011;3035;49.928;8.410;2023-02-03T15:53:59;0.70;;;0.70;;
6013;SDS011;3035;49.928;8.410;2023-02-03T15:56:31;0.60;;;0.60;;
6013;SDS011;3035;49.928;8.410;2023-02-03T15:59:02;0.73;;;0.70;;
6013;SDS011;3035;49.928;8.410;2023-02-03T16:01:30;1.30;;;0.80;;
6013;SDS011;3035;49.928;8.410;2023-02-03T16:03:58;1.40;;;0.90;;
6013;SDS011;3035;49.928;8.410;2023-02-03T16:06:29;3.20;;;1.00;;
6013;SDS011;3035;49.928;8.410;2023-02-03T16:08:58;1.37;;;1.27;;
6013;SDS011;3035;49.928;8.410;2023-02-03T16:11:28;1.20;;;0.90;;
6013;SDS011;3035;49.928;8.410;2023-02-03T16:13:59;0.70;;;0.70;;
6013;SDS011;3035;49.928;8.410;2023-02-03T16:19:20;0.80;;;0.80;;
6013;SDS011;3035;49.928;8.410;2023-02-03T16:21:52;1.43;;;1.33;;
6013;SDS011;3035;49.928;8.410;2023-02-03T16:24:31;1.67;;;1.33;;
6013;SDS011;3035;49.928;8.410;2023-02-03T16:32:59;1.83;;;1.60;;
6013;SDS011;3035;49.928;8.410;2023-02-03T16:35:32;2.27;;;1.10;;
6013;SDS011;3035;49.928;8.410;2023-02-03T16:38:06;1.77;;;1.30;;
6013;SDS011;3035;49.928;8.410;2023-02-03T16:40:44;1.30;;;1.00;;
6013;SDS011;3035;49.928;8.410;2023-02-03T16:43:18;1.60;;;1.10;;
6013;SDS011;3035;49.928;8.410;2023-02-03T16:45:52;1.33;;;1.20;;
6013;SDS011;3035;49.928;8.410;2023-02-03T16:48:26;2.70;;;1.10;;
6013;SDS011;3035;49.928;8.410;2023-02-03T16:51:02;1.30;;;1.00;;
6013;SDS011;3035;49.928;8.410;2023-02-03T16:53:30;0.90;;;0.80;;
6013;SDS011;3035;49.928;8.410;2023-02-03T16:55:58;0.80;;;0.80;;
6013;SDS011;3035;49.928;8.410;2023-02-03T16:58:26;0.93;;;0.90;;
6013;SDS011;3035;49.928;8.410;2023-02-03T17:00:56;1.30;;;1.20;;
6013;SDS011;3035;49.928;8.410;2023-02-03T17:03:24;1.20;;;1.10;;